Whitelaw, Canada
Current Conditions -  °F | °C
As of 1:00 PM on Tuesday 25 Nov 2014 (Local Time) from CYPE Reporting Station
Light Snow Light Snow  
Wind Chill:   Ceiling: 1800
Heat Index:   Visibility: 15mi
Dew Point:   Wind: 3mph
Humidity: 79%   Direction: 100°E
Pressure: 30.17"   Gusts: NA
Location:  56.1°N, 118.08°W
Report Text: CYPE 252000Z 10003KT 15SM -SN OVC018 M13/M16 A3017 RMK SC8 SLP266
Loading
Personal Weather Stations






























Interactive Weather Map New forecast layout! Learn more

10-Day Weather Forecast

Advertisements
Track Severe Weather on mobile